Ossian — WDF2623 — position and weather

sailwx.info

Track history (hours):
 
Tides and Currents Weather Stations Pressure Air Temp Water Temp Dewpoint Dewpoint Depression Visibility Wind Speed Wind Dir Waves Ship Positions

Ossian

Owner: Hartzell, Scott R, Florence, OR. More information available from US FCC via Universal Licensing System and Coast Guard Vessel Documentation Center.

Last reported at 2015-May-10 12:30 UTC. Time now 2015-May-30 06:34 UTC.
Position N 43°38' W 124°36'.
Warning: this ship's position is 19 days out of date.

Length 26 m.

Type: Fishing. MMSI: 366773410.

Date/timePositionNaut miles runAvg speedWind from/ knotsBaromVisibWave heightAir tempDewpointWater temp
2015-May-10 12:30N 43°38' W 124°36'2 0.7
2015-May-10 10:19N 43°39' W 124°38'1 0.6
2015-May-10 08:33N 43°39' W 124°40'33 4.7
2015-May-10 01:33N 44°08' W 124°59'1 0.9
2015-May-10 00:33N 44°07' W 124°59'1 1.3
2015-May-09 23:33N 44°06' W 124°58'1 1.0
2015-May-09 22:33N 44°06' W 124°57'6 1.1
2015-May-09 17:31N 43°60' W 124°57'2 1.7
2015-May-09 16:22N 43°58' W 124°58'1 1.0
2015-May-09 15:31N 43°59' W 124°58'19 1.3
2015-May-09 01:33N 44°17' W 124°55'9 0.6
2015-May-08 10:25N 44°09' W 124°60'1 1.1
2015-May-08 09:33N 44°10' W 124°60'1 1.2
2015-May-08 08:33N 44°11' W 124°59'2 1.3
2015-May-08 07:23N 44°13' W 124°58'1 1.4
2015-May-08 06:24N 44°14' W 124°58'3 0.5
2015-May-08 00:20N 44°11' W 124°59'1 1.4
2015-May-07 23:19N 44°12' W 124°59'5 2.4
2015-May-07 21:18N 44°08' W 124°58'  
2015-May-04 06:29N 44°02' W 124°59'11 1.3
2015-May-03 21:24N 43°54' W 124°47'  
Track history (hours):
 
Tides and Currents Weather Stations Pressure Air Temp Water Temp Dewpoint Dewpoint Depression Visibility Wind Speed Wind Dir Waves Ship Positions

Ossian

Owner: Hartzell, Scott R, Florence, OR. More information available from US FCC via Universal Licensing System and Coast Guard Vessel Documentation Center.

Last reported at 2015-May-10 12:30 UTC. Time now 2015-May-30 06:34 UTC.
Position N 43°38' W 124°36'.
Warning: this ship's position is 19 days out of date.

Length 26 m.

Type: Fishing. MMSI: 366773410.

Date/timePositionNaut miles runAvg speedWind from/ knotsBaromVisibWave heightAir tempDewpointWater temp
2015-May-10 12:30N 43°38' W 124°36'2 0.7
2015-May-10 10:19N 43°39' W 124°38'1 0.6
2015-May-10 08:33N 43°39' W 124°40'33 4.7
2015-May-10 01:33N 44°08' W 124°59'1 0.9
2015-May-10 00:33N 44°07' W 124°59'1 1.3
2015-May-09 23:33N 44°06' W 124°58'1 1.0
2015-May-09 22:33N 44°06' W 124°57'6 1.1
2015-May-09 17:31N 43°60' W 124°57'2 1.7
2015-May-09 16:22N 43°58' W 124°58'1 1.0
2015-May-09 15:31N 43°59' W 124°58'19 1.3
2015-May-09 01:33N 44°17' W 124°55'9 0.6
2015-May-08 10:25N 44°09' W 124°60'1 1.1
2015-May-08 09:33N 44°10' W 124°60'1 1.2
2015-May-08 08:33N 44°11' W 124°59'2 1.3
2015-May-08 07:23N 44°13' W 124°58'1 1.4
2015-May-08 06:24N 44°14' W 124°58'3 0.5
2015-May-08 00:20N 44°11' W 124°59'1 1.4
2015-May-07 23:19N 44°12' W 124°59'5 2.4
2015-May-07 21:18N 44°08' W 124°58'  
2015-May-04 06:29N 44°02' W 124°59'11 1.3
2015-May-03 21:24N 43°54' W 124°47'  

Dump ship's entire track history